Time;durP1;ratioP1;P1;durP2;ratioP2;P2;SDS_P1;SDS_P2;PMS_P1;PMS_P2;Temp;Humidity;BMP_temperature;BMP_pressure;BME280_temperature;BME280_humidity;BME280_pressure;Samples;Min_cycle;Max_cycle;Signal;HPM_P1;HPM_P2
2021/03/01 00:01:40;;;;;;;36.25;16.70;;;7.00;99.50;;;;;;4803193;29;20038;-74
2021/03/01 00:04:06;;;;;;;34.90;17.02;;;7.10;99.30;;;;;;4803361;29;20050;-74
2021/03/01 00:06:31;;;;;;;31.67;16.15;;;7.00;99.40;;;;;;4803214;29;20043;-77
2021/03/01 00:08:57;;;;;;;30.98;15.70;;;6.90;99.40;;;;;;4803170;29;20039;-75
2021/03/01 00:11:22;;;;;;;29.58;15.38;;;7.00;99.70;;;;;;4804298;29;20027;-76
2021/03/01 00:13:48;;;;;;;29.73;15.73;;;7.10;99.40;;;;;;4802995;29;20480;-75
2021/03/01 00:16:16;;;;;;;32.42;16.08;;;7.10;99.30;;;;;;4786911;29;20035;-74
2021/03/01 00:18:42;;;;;;;34.03;17.15;;;7.10;99.30;;;;;;4787028;29;20104;-75
2021/03/01 00:21:08;;;;;;;31.05;16.83;;;7.00;99.30;;;;;;4803287;29;20347;-75
2021/03/01 00:23:33;;;;;;;36.25;17.15;;;7.00;99.40;;;;;;4802972;29;20030;-76
2021/03/01 00:25:59;;;;;;;31.13;16.63;;;7.00;99.40;;;;;;4803519;29;20158;-75
2021/03/01 00:28:24;;;;;;;34.38;16.88;;;7.10;99.40;;;;;;4802547;29;20090;-75
2021/03/01 00:30:50;;;;;;;34.03;17.80;;;7.10;99.30;;;;;;4802870;29;20509;-74
2021/03/01 00:33:15;;;;;;;32.58;15.85;;;7.10;99.30;;;;;;4802806;29;20108;-75
2021/03/01 00:35:41;;;;;;;31.83;16.90;;;7.20;99.20;;;;;;4802769;29;20067;-75
2021/03/01 00:38:06;;;;;;;34.58;17.33;;;7.20;99.10;;;;;;4804406;29;20106;-76
2021/03/01 00:40:32;;;;;;;29.60;16.95;;;7.30;99.30;;;;;;4802118;29;20429;-76
2021/03/01 00:42:58;;;;;;;32.60;17.50;;;7.30;99.20;;;;;;4802198;29;20043;-74
2021/03/01 00:45:24;;;;;;;32.88;17.02;;;7.30;99.20;;;;;;4786172;29;20403;-75
2021/03/01 00:47:49;;;;;;;34.30;17.77;;;7.30;99.10;;;;;;4802673;29;20066;-75
2021/03/01 00:50:16;;;;;;;31.08;16.55;;;7.30;99.20;;;;;;4804000;29;20027;-76
2021/03/01 00:52:42;;;;;;;37.10;17.48;;;7.30;99.20;;;;;;4786939;29;20405;-76
2021/03/01 00:55:09;;;;;;;34.42;18.25;;;7.30;99.20;;;;;;4801842;29;20496;-76
2021/03/01 00:57:34;;;;;;;32.40;17.55;;;7.30;99.10;;;;;;4802333;29;20050;-76
2021/03/01 01:00:00;;;;;;;33.72;18.55;;;7.40;99.10;;;;;;4802440;29;20039;-76
2021/03/01 01:02:25;;;;;;;36.72;18.85;;;7.40;99.30;;;;;;4804263;29;20106;-76
2021/03/01 01:04:51;;;;;;;33.42;17.63;;;7.40;98.90;;;;;;4802551;29;20035;-76
2021/03/01 01:07:16;;;;;;;40.67;19.83;;;7.40;98.90;;;;;;4802281;29;20123;-76
2021/03/01 01:09:42;;;;;;;37.70;18.52;;;7.40;99.00;;;;;;4802405;29;20123;-76
2021/03/01 01:12:08;;;;;;;38.45;20.20;;;7.40;98.90;;;;;;4802180;29;20385;-76
2021/03/01 01:14:34;;;;;;;36.00;19.30;;;7.50;98.90;;;;;;4802134;29;20054;-75
2021/03/01 01:16:59;;;;;;;36.63;18.55;;;7.50;98.90;;;;;;4803903;29;20408;-76
2021/03/01 01:19:25;;;;;;;40.20;18.73;;;7.50;98.90;;;;;;4786527;29;20126;-75
2021/03/01 01:21:51;;;;;;;34.47;17.98;;;7.30;98.90;;;;;;4786438;29;20035;-75
2021/03/01 01:24:16;;;;;;;39.20;18.60;;;7.40;99.00;;;;;;4786396;29;20039;-76
2021/03/01 01:26:42;;;;;;;36.08;18.38;;;7.50;98.90;;;;;;4801262;29;20070;-75
2021/03/01 01:29:07;;;;;;;31.67;16.85;;;7.30;99.00;;;;;;4803846;29;20034;-77
2021/03/01 01:31:33;;;;;;;32.33;16.65;;;7.30;99.10;;;;;;4802221;29;20405;-75
2021/03/01 01:33:59;;;;;;;36.85;15.50;;;7.40;99.10;;;;;;4786271;29;20142;-77
2021/03/01 01:36:24;;;;;;;31.73;15.80;;;7.50;98.90;;;;;;4786670;29;20343;-77
2021/03/01 01:38:50;;;;;;;32.63;15.10;;;7.50;98.90;;;;;;4801862;29;20027;-77
2021/03/01 01:41:17;;;;;;;28.95;15.07;;;7.60;98.80;;;;;;4786935;29;20039;-76
2021/03/01 01:43:42;;;;;;;24.95;12.82;;;7.50;98.90;;;;;;4802408;29;20378;-76
2021/03/01 01:46:08;;;;;;;27.52;11.85;;;7.60;98.90;;;;;;4802064;29;20046;-76
2021/03/01 01:48:34;;;;;;;29.58;13.32;;;7.50;98.90;;;;;;4802177;29;20039;-77
2021/03/01 01:50:59;;;;;;;28.38;15.35;;;7.50;98.90;;;;;;4802233;29;20039;-75
2021/03/01 01:53:25;;;;;;;29.23;15.48;;;7.50;98.90;;;;;;4788233;29;20042;-76
2021/03/01 01:55:51;;;;;;;31.45;15.43;;;7.50;99.10;;;;;;4787396;29;20401;-76
2021/03/01 01:58:17;;;;;;;30.38;14.07;;;7.40;99.10;;;;;;4789453;29;20043;-76
2021/03/01 02:03:41;;;;;;;22.33;10.70;;;7.60;98.90;;;;;;4805770;29;20053;-76
2021/03/01 02:06:29;;;;;;;20.67;9.52;;;7.60;98.80;;;;;;4805107;29;20057;-75
2021/03/01 02:09:17;;;;;;;18.10;8.55;;;7.50;98.60;;;;;;4805324;29;20058;-76
2021/03/01 02:12:09;;;;;;;20.38;8.68;;;7.40;98.70;;;;;;4804514;29;20042;-75
2021/03/01 02:15:13;;;;;;;21.77;8.68;;;7.40;98.80;;;;;;4805302;29;20091;-75
2021/03/01 02:17:39;;;;;;;19.75;9.20;;;7.30;98.80;;;;;;4803631;29;20145;-75
2021/03/01 02:20:08;;;;;;;16.15;8.75;;;7.50;98.80;;;;;;4790599;29;20030;-75
2021/03/01 02:22:34;;;;;;;16.52;8.63;;;7.40;98.80;;;;;;4804984;29;20031;-74
2021/03/01 02:25:09;;;;;;;22.90;8.85;;;7.50;98.60;;;;;;4804765;29;20057;-74
2021/03/01 02:27:43;;;;;;;23.33;9.32;;;7.50;98.60;;;;;;4804028;29;20062;-74
2021/03/01 02:30:18;;;;;;;24.20;9.90;;;7.50;98.70;;;;;;4805034;29;20038;-73
2021/03/01 02:32:46;;;;;;;16.73;8.15;;;7.50;98.50;;;;;;4804821;29;20031;-75
2021/03/01 02:35:13;;;;;;;18.50;8.82;;;7.50;98.40;;;;;;4803132;29;20110;-75
2021/03/01 02:37:40;;;;;;;23.05;8.55;;;7.50;98.50;;;;;;4786786;30;20035;-75
2021/03/01 02:40:09;;;;;;;18.50;8.60;;;7.60;98.60;;;;;;4786663;30;20082;-75
2021/03/01 02:42:38;;;;;;;22.25;9.30;;;7.60;98.50;;;;;;4781980;29;20042;-75
2021/03/01 02:45:06;;;;;;;18.33;8.93;;;7.60;98.60;;;;;;4804595;29;20042;-75
2021/03/01 02:47:32;;;;;;;16.58;6.88;;;7.60;98.60;;;;;;4788806;29;20138;-72
2021/03/01 02:49:59;;;;;;;21.65;7.97;;;7.60;98.70;;;;;;4806250;29;20030;-73
2021/03/01 02:52:26;;;;;;;19.65;8.55;;;7.50;98.80;;;;;;4804406;29;20031;-74
2021/03/01 02:54:54;;;;;;;17.15;7.43;;;7.60;98.90;;;;;;4804500;29;20067;-74
2021/03/01 02:57:22;;;;;;;20.83;8.40;;;7.50;98.90;;;;;;4812113;29;20046;-74
2021/03/01 02:59:50;;;;;;;17.85;8.43;;;7.40;99.00;;;;;;4822310;29;20043;-74
2021/03/01 03:02:18;;;;;;;20.58;8.77;;;7.40;99.00;;;;;;4824008;29;20113;-76
2021/03/01 03:04:45;;;;;;;19.75;9.10;;;7.30;99.00;;;;;;4822462;29;20572;-75
2021/03/01 03:07:11;;;;;;;18.67;8.03;;;7.30;99.30;;;;;;4805953;29;20042;-75
2021/03/01 03:09:37;;;;;;;18.40;8.13;;;7.30;99.30;;;;;;4806353;29;20062;-75
2021/03/01 03:12:04;;;;;;;29.67;10.13;;;7.40;99.20;;;;;;4816537;29;20122;-74
2021/03/01 03:14:33;;;;;;;17.10;9.07;;;7.40;99.10;;;;;;4805396;29;20038;-74
2021/03/01 03:16:59;;;;;;;19.92;9.30;;;7.50;99.10;;;;;;4804080;29;20035;-74
2021/03/01 03:19:26;;;;;;;20.48;9.38;;;7.60;99.00;;;;;;4804209;29;20050;-74
2021/03/01 03:21:52;;;;;;;23.25;9.43;;;7.60;99.00;;;;;;4803890;29;20126;-74
2021/03/01 03:24:17;;;;;;;23.88;9.73;;;7.60;99.00;;;;;;4803882;29;20121;-76
2021/03/01 03:26:43;;;;;;;20.27;10.23;;;7.50;98.90;;;;;;4786895;29;20082;-74
2021/03/01 03:29:08;;;;;;;20.67;10.02;;;7.50;99.00;;;;;;4805464;29;20031;-74
2021/03/01 03:31:34;;;;;;;20.00;9.75;;;7.50;99.00;;;;;;4803749;29;20362;-75
2021/03/01 03:34:00;;;;;;;20.75;9.48;;;7.60;98.90;;;;;;4788180;29;20047;-74
2021/03/01 03:36:29;;;;;;;20.23;10.02;;;7.40;99.00;;;;;;4803565;29;20103;-75
2021/03/01 03:39:09;;;;;;;25.60;9.98;;;7.30;99.10;;;;;;4803683;29;20627;-74
2021/03/01 03:41:37;;;;;;;24.08;10.52;;;7.40;99.10;;;;;;4803993;29;20038;-74
2021/03/01 03:44:04;;;;;;;27.77;10.90;;;7.40;99.00;;;;;;4804738;29;20522;-74
2021/03/01 03:46:31;;;;;;;27.70;10.43;;;7.30;99.00;;;;;;4803440;29;20130;-75
2021/03/01 03:48:58;;;;;;;28.02;12.10;;;7.20;99.10;;;;;;4803393;29;20047;-75
2021/03/01 03:51:27;;;;;;;26.92;13.63;;;7.30;99.20;;;;;;4804114;29;20122;-75
2021/03/01 03:53:58;;;;;;;25.45;13.35;;;7.20;99.20;;;;;;4803513;29;20085;-76
2021/03/01 03:56:26;;;;;;;32.03;15.07;;;7.20;99.20;;;;;;4805036;29;20085;-76
2021/03/01 03:59:05;;;;;;;36.83;15.70;;;7.20;99.00;;;;;;4802786;29;20051;-77
2021/03/01 04:01:34;;;;;;;38.45;15.60;;;7.00;99.20;;;;;;4787277;29;20031;-75
2021/03/01 04:04:03;;;;;;;34.30;13.93;;;7.20;99.30;;;;;;4803020;29;20126;-75
2021/03/01 04:06:31;;;;;;;38.33;14.82;;;7.30;99.20;;;;;;4803103;29;20107;-75
2021/03/01 04:08:57;;;;;;;31.63;15.20;;;7.30;99.10;;;;;;4803177;29;20076;-75
2021/03/01 04:11:26;;;;;;;41.70;16.42;;;7.30;99.10;;;;;;4804664;29;20449;-76
2021/03/01 04:13:55;;;;;;;39.70;14.70;;;7.40;99.00;;;;;;4802710;29;20059;-75
2021/03/01 04:16:23;;;;;;;31.67;14.73;;;7.40;98.90;;;;;;4802930;29;20378;-77
2021/03/01 04:18:53;;;;;;;35.78;14.40;;;7.30;99.00;;;;;;4802241;29;20070;-76
2021/03/01 04:21:21;;;;;;;33.17;15.07;;;7.40;99.00;;;;;;4803049;29;20077;-75
2021/03/01 04:23:48;;;;;;;;;;;7.50;98.80;;;;;;4803157;29;20042;-76
2021/03/01 04:26:14;;;;;;;33.40;14.83;;;7.50;98.70;;;;;;4804207;29;19925;-76
2021/03/01 04:28:41;;;;;;;34.08;14.25;;;7.50;98.60;;;;;;4786195;29;20039;-76
2021/03/01 04:31:09;;;;;;;38.92;14.63;;;7.40;98.50;;;;;;4803114;29;20046;-76
2021/03/01 04:33:35;;;;;;;;;;;7.40;98.50;;;;;;4803252;29;20126;-76
2021/03/01 04:36:02;;;;;;;38.40;14.60;;;7.40;98.50;;;;;;4802822;29;20004;-78
2021/03/01 04:38:28;;;;;;;29.38;14.40;;;7.40;98.60;;;;;;4788288;29;20122;-76
2021/03/01 04:40:54;;;;;;;36.72;15.95;;;7.40;98.50;;;;;;4786846;29;20513;-76
2021/03/01 04:43:21;;;;;;;44.30;15.40;;;7.50;98.60;;;;;;4802063;29;20469;-76
2021/03/01 04:45:51;;;;;;;36.97;15.13;;;7.40;98.50;;;;;;4786723;29;20070;-76
2021/03/01 04:48:17;;;;;;;39.38;15.43;;;7.40;98.60;;;;;;4786698;29;20046;-75
2021/03/01 04:50:45;;;;;;;33.28;14.15;;;7.40;98.50;;;;;;4802427;29;20041;-77
2021/03/01 04:53:12;;;;;;;27.42;13.10;;;7.30;98.60;;;;;;4804163;29;20030;-76
2021/03/01 04:55:39;;;;;;;24.60;12.52;;;7.20;98.70;;;;;;4802621;29;20042;-76
2021/03/01 04:58:05;;;;;;;28.02;12.85;;;7.30;98.80;;;;;;4788812;29;20427;-77
2021/03/01 05:00:33;;;;;;;28.83;12.88;;;7.30;98.70;;;;;;4820899;29;20475;-76
2021/03/01 05:03:00;;;;;;;32.63;13.75;;;7.30;98.80;;;;;;4820739;29;20066;-76
2021/03/01 05:05:26;;;;;;;27.53;13.77;;;7.40;98.80;;;;;;4822185;29;20572;-76
2021/03/01 05:07:52;;;;;;;32.63;15.40;;;7.40;98.80;;;;;;4820323;29;20306;-76
2021/03/01 05:10:19;;;;;;;37.25;15.32;;;7.20;98.60;;;;;;4820591;29;20121;-74
2021/03/01 05:12:45;;;;;;;34.97;14.40;;;7.20;98.60;;;;;;4804266;29;20038;-75
2021/03/01 05:15:10;;;;;;;28.88;13.95;;;7.20;98.60;;;;;;4803761;29;20103;-75
2021/03/01 05:17:38;;;;;;;32.90;13.93;;;7.20;98.60;;;;;;4820380;29;20033;-75
2021/03/01 05:20:04;;;;;;;27.88;13.23;;;7.10;98.60;;;;;;4822398;29;20074;-77
2021/03/01 05:22:29;;;;;;;30.75;13.90;;;7.10;98.80;;;;;;4820406;29;20043;-77
2021/03/01 05:24:55;;;;;;;33.10;13.68;;;7.30;98.70;;;;;;4820568;29;20095;-77
2021/03/01 05:27:22;;;;;;;32.58;14.48;;;7.30;98.60;;;;;;4820618;29;20062;-77
2021/03/01 05:29:47;;;;;;;35.92;15.20;;;7.40;98.50;;;;;;4820408;29;20153;-75
2021/03/01 05:32:13;;;;;;;28.27;13.63;;;7.30;98.40;;;;;;4825284;29;20046;-75
2021/03/01 05:34:39;;;;;;;32.20;13.77;;;7.40;98.50;;;;;;4823754;29;20042;-76
2021/03/01 05:37:04;;;;;;;34.90;15.45;;;7.50;98.40;;;;;;4823685;29;20469;-77
2021/03/01 05:39:30;;;;;;;33.67;14.70;;;7.50;98.30;;;;;;4823359;29;20042;-78
2021/03/01 05:41:55;;;;;;;38.53;16.10;;;7.40;98.20;;;;;;4823820;29;20046;-76
2021/03/01 05:44:22;;;;;;;38.88;15.35;;;7.50;98.30;;;;;;4824419;29;20043;-76
2021/03/01 05:46:49;;;;;;;29.20;14.32;;;7.50;98.30;;;;;;4807462;29;20073;-75
2021/03/01 05:49:16;;;;;;;32.63;15.07;;;7.50;98.20;;;;;;4823608;29;20050;-75
2021/03/01 05:51:50;;;;;;;36.53;16.02;;;7.50;98.20;;;;;;4823578;29;20031;-75
2021/03/01 05:54:23;;;;;;;33.92;15.82;;;7.40;98.00;;;;;;4823277;29;20047;-75
2021/03/01 05:56:50;;;;;;;37.83;16.88;;;7.40;98.10;;;;;;4823399;29;20042;-76
2021/03/01 05:59:16;;;;;;;36.67;17.02;;;7.20;97.90;;;;;;4824558;29;20036;-75
2021/03/01 06:01:43;;;;;;;39.42;17.58;;;7.20;98.10;;;;;;4807491;29;20054;-76
2021/03/01 06:04:10;;;;;;;39.87;17.43;;;7.10;98.10;;;;;;4807379;29;20047;-76
2021/03/01 06:06:36;;;;;;;43.17;17.85;;;7.10;98.10;;;;;;4823239;29;20046;-75
2021/03/01 06:09:02;;;;;;;40.50;17.98;;;7.20;98.10;;;;;;4822731;29;20038;-75
2021/03/01 06:11:27;;;;;;;42.70;17.98;;;7.20;98.10;;;;;;4825156;29;20027;-76
2021/03/01 06:13:53;;;;;;;41.33;17.77;;;7.10;98.10;;;;;;4815033;29;20039;-75
2021/03/01 06:16:18;;;;;;;37.88;17.90;;;7.20;98.20;;;;;;4805300;29;20039;-75
2021/03/01 06:18:45;;;;;;;37.65;16.65;;;7.30;98.20;;;;;;4788805;29;20119;-76
2021/03/01 06:21:16;;;;;;;36.30;16.92;;;7.30;98.20;;;;;;4804814;29;20047;-75
2021/03/01 06:23:43;;;;;;;38.80;18.02;;;7.30;98.30;;;;;;4804813;29;20027;-76
2021/03/01 06:26:35;;;;;;;40.33;16.85;;;7.40;98.20;;;;;;4806066;29;20062;-76
2021/03/01 06:29:03;;;;;;;36.17;18.27;;;7.30;98.00;;;;;;4786427;29;20043;-76
2021/03/01 06:31:38;;;;;;;40.92;17.92;;;7.30;97.80;;;;;;4792916;29;20484;-76
2021/03/01 06:34:32;;;;;;;38.63;17.88;;;7.30;98.00;;;;;;4787867;30;20490;-77
2021/03/01 06:37:02;;;;;;;40.05;18.42;;;7.40;98.00;;;;;;4787805;30;20063;-77
2021/03/01 06:39:42;;;;;;;40.90;19.33;;;7.40;98.00;;;;;;4787617;30;20035;-77
2021/03/01 06:42:17;;;;;;;46.50;18.95;;;7.40;97.90;;;;;;4786290;29;20104;-79
2021/03/01 06:44:48;;;;;;;40.60;17.80;;;7.30;97.90;;;;;;4791846;29;20478;-78
2021/03/01 06:47:14;;;;;;;42.75;20.85;;;7.30;97.90;;;;;;4805873;29;20347;-75
2021/03/01 06:49:42;;;;;;;48.20;20.27;;;7.30;97.90;;;;;;4802457;29;20039;-75
2021/03/01 06:52:08;;;;;;;44.80;20.73;;;7.40;98.00;;;;;;4786440;30;20035;-77
2021/03/01 06:54:34;;;;;;;41.13;18.58;;;7.50;97.80;;;;;;4770557;30;20035;-77
2021/03/01 06:57:00;;;;;;;55.03;20.67;;;7.40;97.80;;;;;;4770679;30;20424;-77
2021/03/01 06:59:26;;;;;;;46.22;20.83;;;7.50;97.80;;;;;;4772946;29;20023;-76
2021/03/01 07:01:54;;;;;;;42.95;20.25;;;7.50;97.60;;;;;;4803432;29;20039;-75
2021/03/01 07:04:22;;;;;;;43.38;20.55;;;7.60;97.60;;;;;;4803716;29;20042;-75
2021/03/01 07:06:49;;;;;;;45.53;20.05;;;7.50;97.50;;;;;;4804036;29;20055;-77
2021/03/01 07:09:34;;;;;;;41.45;20.33;;;7.50;97.40;;;;;;4804054;29;20133;-76
2021/03/01 07:11:59;;;;;;;46.42;21.20;;;7.50;97.50;;;;;;4785405;29;20477;-79
2021/03/01 07:14:27;;;;;;;43.60;20.63;;;7.50;97.40;;;;;;4787212;30;20255;-73
2021/03/01 07:16:58;;;;;;;47.67;20.83;;;7.60;97.50;;;;;;4802881;29;20055;-76
2021/03/01 07:19:27;;;;;;;50.05;21.77;;;7.40;97.50;;;;;;4803618;29;20430;-79
2021/03/01 07:21:54;;;;;;;51.22;21.10;;;7.50;97.60;;;;;;4803871;29;20126;-78
2021/03/01 07:24:23;;;;;;;50.30;21.83;;;7.50;97.60;;;;;;4803823;29;20050;-74
2021/03/01 07:26:50;;;;;;;44.38;20.67;;;7.50;97.40;;;;;;4786391;29;20069;-76
2021/03/01 07:29:19;;;;;;;45.53;20.92;;;7.40;97.40;;;;;;4788432;29;20030;-76
2021/03/01 07:32:04;;;;;;;46.70;20.27;;;7.40;97.40;;;;;;4782229;30;20452;-77
2021/03/01 07:34:30;;;;;;;42.20;20.95;;;7.30;97.40;;;;;;4785167;30;20050;-75
2021/03/01 07:36:58;;;;;;;49.60;20.98;;;7.20;97.40;;;;;;4769243;30;20042;-72
2021/03/01 07:39:25;;;;;;;54.50;23.83;;;7.30;97.60;;;;;;4769209;30;20130;-76
2021/03/01 07:41:51;;;;;;;56.08;24.15;;;7.40;97.50;;;;;;4769236;29;20032;-79
2021/03/01 07:44:27;;;;;;;49.15;20.58;;;7.50;97.40;;;;;;4770630;30;20377;-77
2021/03/01 07:46:53;;;;;;;47.72;20.73;;;7.50;97.30;;;;;;4794078;29;20051;-78
2021/03/01 07:49:42;;;;;;;44.97;20.88;;;7.60;97.30;;;;;;4803030;29;20472;-78
2021/03/01 07:52:29;;;;;;;46.80;21.83;;;7.50;97.20;;;;;;4786121;29;20138;-78
2021/03/01 07:54:59;;;;;;;49.42;22.08;;;7.60;97.40;;;;;;4777194;29;20047;-78
2021/03/01 07:57:27;;;;;;;52.30;22.45;;;7.60;97.20;;;;;;4803209;29;20461;-78
2021/03/01 07:59:53;;;;;;;59.20;26.77;;;7.60;97.20;;;;;;4802913;29;20039;-78
2021/03/01 08:02:32;;;;;;;47.47;21.95;;;7.70;97.10;;;;;;4803243;29;20083;-77
2021/03/01 08:05:00;;;;;;;49.08;23.05;;;7.60;97.00;;;;;;4802733;29;20553;-78
2021/03/01 08:07:40;;;;;;;51.65;23.48;;;7.60;96.90;;;;;;4786381;29;20074;-76
2021/03/01 08:10:16;;;;;;;58.47;23.90;;;7.50;97.00;;;;;;4787026;29;20043;-79
2021/03/01 08:15:23;;;;;;;49.25;21.63;;;7.50;96.90;;;;;;5130332;24;20099;-77
2021/03/01 08:17:50;;;;;;;47.38;22.83;;;7.60;96.80;;;;;;4786345;29;20378;-77
2021/03/01 08:20:16;;;;;;;47.50;20.75;;;7.50;96.70;;;;;;4804445;29;20095;-80
2021/03/01 08:28:15;;;;;;;49.85;21.40;;;7.60;96.50;;;;;;4802837;29;20454;-77
2021/03/01 08:30:42;;;;;;;41.05;19.10;;;7.60;96.40;;;;;;4785229;29;20134;-76
2021/03/01 08:33:10;;;;;;;43.63;18.67;;;7.60;96.50;;;;;;4802558;29;20039;-75
2021/03/01 08:35:52;;;;;;;38.22;17.70;;;7.60;96.50;;;;;;4802439;29;20026;-77
2021/03/01 08:38:41;;;;;;;40.90;16.85;;;7.50;96.40;;;;;;4803768;29;20105;-74
2021/03/01 08:41:07;;;;;;;36.65;17.77;;;7.40;96.40;;;;;;4802151;29;20054;-75
2021/03/01 08:43:53;;;;;;;39.83;17.73;;;7.30;96.40;;;;;;4801603;29;20047;-75
2021/03/01 08:46:20;;;;;;;38.45;19.13;;;7.30;96.80;;;;;;4800774;29;20347;-76
2021/03/01 08:48:49;;;;;;;31.35;16.83;;;7.30;96.60;;;;;;4802448;29;20122;-77
2021/03/01 08:51:16;;;;;;;35.45;15.38;;;7.40;96.70;;;;;;4802593;29;20046;-78
2021/03/01 08:53:42;;;;;;;36.53;15.07;;;7.40;96.90;;;;;;4801985;29;20059;-77
2021/03/01 08:56:20;;;;;;;27.73;14.27;;;7.40;96.60;;;;;;4788123;29;20070;-75
2021/03/01 08:58:46;;;;;;;30.58;14.48;;;7.40;96.60;;;;;;4802410;29;20043;-77
2021/03/01 09:01:12;;;;;;;27.95;13.65;;;7.40;96.60;;;;;;4784546;29;20907;-76
2021/03/01 09:03:39;;;;;;;25.88;13.32;;;7.40;96.70;;;;;;4786441;29;20043;-76
2021/03/01 09:06:10;;;;;;;24.80;12.43;;;7.40;96.60;;;;;;4806122;29;20476;-77
2021/03/01 09:08:38;;;;;;;27.98;13.13;;;7.40;96.60;;;;;;4789851;29;20082;-76
2021/03/01 09:11:10;;;;;;;30.90;13.20;;;7.50;96.70;;;;;;4807333;29;20073;-77
2021/03/01 09:13:37;;;;;;;26.40;13.10;;;7.60;96.70;;;;;;4790105;29;20055;-76
2021/03/01 09:16:09;;;;;;;24.10;12.52;;;7.60;96.50;;;;;;4779210;29;20558;-80
2021/03/01 09:18:35;;;;;;;29.00;12.55;;;7.60;96.30;;;;;;4805410;29;20047;-81
2021/03/01 09:21:03;;;;;;;30.88;14.35;;;7.70;96.40;;;;;;4805583;29;20031;-76
2021/03/01 09:23:50;;;;;;;25.92;13.45;;;7.70;96.30;;;;;;4807587;29;20402;-76
2021/03/01 09:26:33;;;;;;;27.97;13.00;;;7.70;96.30;;;;;;4805860;29;20043;-76
2021/03/01 09:29:09;;;;;;;27.80;12.80;;;7.60;96.30;;;;;;4805998;29;20046;-76
2021/03/01 09:31:50;;;;;;;27.33;12.48;;;7.70;96.40;;;;;;4779134;29;20041;-76
2021/03/01 09:34:18;;;;;;;25.05;12.15;;;7.60;96.20;;;;;;4805349;29;20047;-78
2021/03/01 09:36:48;;;;;;;23.45;11.82;;;7.70;96.40;;;;;;4805929;29;20388;-76
2021/03/01 09:39:21;;;;;;;23.92;11.77;;;7.70;96.30;;;;;;4789212;29;20477;-77
2021/03/01 09:41:48;;;;;;;19.33;11.50;;;7.70;96.10;;;;;;4789050;29;20489;-77
2021/03/01 09:44:26;;;;;;;29.90;12.63;;;7.60;96.00;;;;;;4791025;29;20059;-75
2021/03/01 09:46:53;;;;;;;20.95;11.55;;;7.70;96.10;;;;;;4778574;29;20133;-77
2021/03/01 09:49:19;;;;;;;29.90;12.93;;;7.70;96.00;;;;;;4789071;29;20043;-76
2021/03/01 09:51:46;;;;;;;25.55;12.82;;;7.80;95.80;;;;;;4789336;29;20043;-76
2021/03/01 09:54:12;;;;;;;32.03;14.68;;;7.90;95.70;;;;;;4805107;29;20047;-76
2021/03/01 09:56:38;;;;;;;26.58;12.57;;;8.00;95.50;;;;;;4789382;29;20031;-74
2021/03/01 09:59:04;;;;;;;29.55;14.32;;;7.90;95.40;;;;;;4806805;29;20023;-75
2021/03/01 10:01:30;;;;;;;27.45;13.35;;;8.00;95.60;;;;;;4794774;29;20050;-75
2021/03/01 10:03:55;;;;;;;30.83;13.40;;;8.00;95.30;;;;;;4804586;29;20465;-77
2021/03/01 10:06:38;;;;;;;29.35;14.38;;;8.00;95.30;;;;;;4804909;29;20553;-74
2021/03/01 10:09:08;;;;;;;30.35;14.95;;;8.00;95.20;;;;;;4804466;29;20126;-74
2021/03/01 10:11:34;;;;;;;32.15;15.32;;;8.00;95.30;;;;;;4804383;29;20035;-75
2021/03/01 10:14:04;;;;;;;28.88;14.45;;;8.10;95.30;;;;;;4806182;29;20115;-74
2021/03/01 10:16:31;;;;;;;32.13;15.57;;;8.20;95.40;;;;;;4787952;29;20046;-77
2021/03/01 10:19:08;;;;;;;33.85;15.80;;;8.30;95.20;;;;;;4804045;29;20069;-83
2021/03/01 10:21:34;;;;;;;32.13;16.95;;;8.10;95.00;;;;;;4804739;29;20035;-79
2021/03/01 10:24:06;;;;;;;32.92;15.55;;;8.30;95.00;;;;;;4788828;29;20156;-79
2021/03/01 10:26:32;;;;;;;34.88;15.55;;;8.20;94.80;;;;;;4804035;29;20110;-79
2021/03/01 10:29:02;;;;;;;32.10;16.27;;;8.30;94.60;;;;;;4790247;29;20106;-79
2021/03/01 10:31:32;;;;;;;35.60;18.05;;;8.40;94.50;;;;;;4788373;29;20225;-77
2021/03/01 10:34:03;;;;;;;43.60;19.85;;;8.40;94.50;;;;;;4803811;29;20129;-76
2021/03/01 10:36:55;;;;;;;36.05;20.02;;;8.40;94.40;;;;;;4804234;29;20084;-77
2021/03/01 10:39:28;;;;;;;45.13;22.13;;;8.50;94.40;;;;;;4803342;29;20050;-77
2021/03/01 10:41:57;;;;;;;52.97;24.10;;;8.50;94.30;;;;;;4788284;29;20038;-77
2021/03/01 10:44:34;;;;;;;53.78;25.77;;;8.60;94.10;;;;;;4805730;29;20083;-77
2021/03/01 10:47:20;;;;;;;67.10;32.13;;;8.50;94.00;;;;;;5022500;24;20120;-77
2021/03/01 10:49:48;;;;;;;68.95;32.78;;;8.50;94.20;;;;;;4761934;30;20157;-78
2021/03/01 10:52:15;;;;;;;75.70;34.95;;;8.50;94.10;;;;;;4785304;29;20053;-75
2021/03/01 10:54:42;;;;;;;78.45;39.03;;;8.50;94.10;;;;;;4784276;29;20488;-75
2021/03/01 10:57:07;;;;;;;76.90;35.35;;;8.50;94.10;;;;;;4784519;29;20051;-80
2021/03/01 10:59:34;;;;;;;75.10;34.97;;;8.70;94.10;;;;;;4786582;29;20067;-75
2021/03/01 11:02:03;;;;;;;83.28;38.97;;;8.60;93.90;;;;;;4786504;29;20046;-93
2021/03/01 11:04:29;;;;;;;90.22;42.35;;;8.70;94.00;;;;;;4768594;30;20059;-77
2021/03/01 11:06:56;;;;;;;90.38;42.55;;;8.80;93.80;;;;;;4767850;30;20047;-76
2021/03/01 11:13:14;;;;;;;98.95;42.67;;;8.80;93.90;;;;;;4780478;30;20484;-75
2021/03/01 11:15:40;;;;;;;97.18;43.75;;;9.00;93.70;;;;;;4784104;29;20123;-82
2021/03/01 11:18:06;;;;;;;98.57;45.10;;;8.80;93.70;;;;;;4785336;30;20118;-75
2021/03/01 11:20:32;;;;;;;102.05;46.75;;;8.90;93.70;;;;;;4785243;29;20031;-76
2021/03/01 11:22:57;;;;;;;98.80;44.13;;;9.00;93.70;;;;;;4771017;30;20714;-74
2021/03/01 11:25:23;;;;;;;91.80;43.00;;;9.00;93.80;;;;;;4785186;29;20419;-75
2021/03/01 11:27:49;;;;;;;102.20;46.78;;;9.20;93.60;;;;;;4769058;30;20043;-74
2021/03/01 11:30:15;;;;;;;95.75;44.30;;;9.20;93.60;;;;;;4770528;29;20134;-76
2021/03/01 11:32:40;;;;;;;90.15;42.40;;;9.30;93.60;;;;;;4786844;29;20035;-76
2021/03/01 11:35:06;;;;;;;106.70;51.90;;;9.60;93.40;;;;;;4788538;29;20046;-76
2021/03/01 11:37:32;;;;;;;93.30;45.28;;;9.80;93.20;;;;;;4785302;29;20091;-73
2021/03/01 11:43:21;;;;;;;77.57;37.67;;;10.00;91.70;;;;;;4774444;29;20157;-75
2021/03/01 11:45:46;;;;;;;82.00;38.80;;;10.10;91.60;;;;;;4784702;29;20147;-77
2021/03/01 11:48:14;;;;;;;82.70;39.05;;;10.30;91.50;;;;;;4798640;29;20363;-75
2021/03/01 11:54:02;;;;;;;91.35;41.55;;;10.60;91.40;;;;;;4807747;29;20057;-75
2021/03/01 11:59:50;;;;;;;81.20;41.35;;;10.90;91.00;;;;;;4807280;29;20030;-72
2021/03/01 12:05:39;;;;;;;88.97;44.17;;;11.20;90.40;;;;;;4807127;29;20038;-74
2021/03/01 12:11:27;;;;;;;79.63;40.72;;;11.70;88.60;;;;;;4807119;29;20026;-73
2021/03/01 12:17:14;;;;;;;84.68;44.90;;;11.50;88.70;;;;;;4806873;29;20038;-73
2021/03/01 12:23:01;;;;;;;87.15;43.88;;;11.50;88.30;;;;;;4806660;29;20087;-74
2021/03/01 12:28:49;;;;;;;84.45;41.60;;;11.50;87.60;;;;;;4806991;29;20037;-74
2021/03/01 12:34:40;;;;;;;80.00;42.30;;;11.40;87.00;;;;;;4806843;29;20034;-74
2021/03/01 12:40:29;;;;;;;82.35;42.58;;;11.40;87.50;;;;;;4806306;29;20306;-74
2021/03/01 12:46:17;;;;;;;75.05;40.97;;;11.60;86.70;;;;;;4805423;29;20047;-74
2021/03/01 12:48:42;;;;;;;84.60;43.33;;;11.40;86.70;;;;;;4801941;29;20126;-72
2021/03/01 12:51:08;;;;;;;85.13;44.25;;;11.60;86.50;;;;;;4804447;29;20023;-74
2021/03/01 12:53:34;;;;;;;75.15;42.50;;;11.60;86.30;;;;;;4801783;29;20122;-75
2021/03/01 12:56:00;;;;;;;79.55;41.28;;;11.60;86.00;;;;;;4801778;29;20129;-73
2021/03/01 12:58:25;;;;;;;78.32;40.92;;;11.50;86.30;;;;;;4801964;29;20112;-75
2021/03/01 13:00:51;;;;;;;70.63;39.13;;;11.40;86.00;;;;;;4785584;29;20054;-74
2021/03/01 13:03:16;;;;;;;74.90;39.30;;;11.50;86.30;;;;;;4786852;29;20035;-75
2021/03/01 13:05:42;;;;;;;66.88;35.63;;;11.50;86.00;;;;;;4802098;29;20115;-74
2021/03/01 13:08:09;;;;;;;71.88;34.58;;;11.50;85.40;;;;;;4802110;29;20038;-73
2021/03/01 13:10:35;;;;;;;64.35;34.97;;;11.50;85.70;;;;;;4785917;29;20431;-74
2021/03/01 13:13:01;;;;;;;63.20;32.45;;;11.50;86.00;;;;;;4801493;29;20153;-74
2021/03/01 13:15:26;;;;;;;50.65;28.75;;;11.30;85.90;;;;;;4787291;29;20035;-74
2021/03/01 13:17:52;;;;;;;52.20;28.35;;;11.30;85.70;;;;;;4801312;29;20043;-73
2021/03/01 13:20:18;;;;;;;45.28;25.27;;;11.40;86.40;;;;;;4801728;29;20035;-74
2021/03/01 13:22:44;;;;;;;45.78;23.08;;;11.30;86.00;;;;;;4801400;29;20046;-74
2021/03/01 13:25:10;;;;;;;38.80;20.50;;;11.20;86.60;;;;;;4800976;29;20046;-76
2021/03/01 13:27:36;;;;;;;45.58;21.52;;;11.00;86.60;;;;;;4801745;29;20446;-73
2021/03/01 13:30:07;;;;;;;37.75;20.25;;;10.90;87.30;;;;;;4802994;29;20561;-75
2021/03/01 13:32:33;;;;;;;38.40;20.65;;;11.00;87.30;;;;;;4801064;29;20456;-74
2021/03/01 13:45:41;;;;;;;29.73;14.90;;;11.10;87.30;;;;;;4561400;31;20622;-75
2021/03/01 13:48:56;;;;;;;32.40;17.27;;;11.10;87.20;;;;;;4575087;31;20178;-75